Station: Mount Baw Baw  

  Atmospheric Gas Attenuation - ITU Rec 676-11   ----------------- dB/100km -----------------
Date Time Temp RH % AH g/m3 Dew Point Wind Direction Speed kph Gust kph Barometer mB Rainfall Since 9am 24GHz 47GHz 76GHz 122GHz 134GHz 241GHz
08/05 12:30 2.9 100 5.91 2.9 33 56 1013.1 4.2 14.3 24.5 33.8 88.4 74.3 252.4
08/05 12:20 3.1 100 5.99 3.1 32 39 1013.1 4.2 14.4 24.6 34.1 89.1 75.2 255.7
08/05 12:10 3 100 5.95 3 26 33 1013.1 3.4 14.4 24.6 34.0 88.8 74.7 254.0
08/05 12:00 2.8 100 5.87 2.8 35 56 1013.1 3.2 14.2 24.5 33.7 88.1 73.8 250.8
08/05 11:50 2.8 100 5.87 2.8 33 43 1013.1 3.2 14.2 24.5 33.7 88.1 73.8 250.8
08/05 11:40 2.9 100 5.91 2.9 32 43 1013.1 3.2 14.3 24.5 33.8 88.4 74.3 252.4
08/05 11:30 2.8 100 5.87 2.8 28 46 1013.1 2 14.2 24.5 33.7 88.1 73.8 250.8
08/05 11:20 2.6 100 5.79 2.6 28 33 1013.1 1.4 14.0 24.4 33.5 87.4 72.9 247.6
08/05 11:10 2.5 100 5.75 2.5 28 33 1013.1 1.4 13.9 24.4 33.3 87.1 72.4 246.0
08/05 11:00 2.7 100 5.83 2.7 32 57 1013.1 1.4 14.1 24.5 33.6 87.8 73.4 249.2
08/05 10:50 2.5 100 5.75 2.5 37 50 1013.1 1.4 13.9 24.4 33.3 87.1 72.4 246.0
08/05 10:40 2.4 100 5.72 2.4 37 44 1013.1 1.4 13.9 24.4 33.3 86.9 72.1 244.8
08/05 10:30 2.4 100 5.72 2.4 37 57 1013.1 1.4 13.9 24.4 33.3 86.9 72.1 244.8
08/05 10:20 2.5 100 5.75 2.5 37 50 1013.1 1.2 13.9 24.4 33.3 87.1 72.4 246.0
08/05 10:10 2.5 100 5.75 2.5 30 39 1013.1 1 13.9 24.4 33.3 87.1 72.4 246.0
08/05 10:00 2.6 100 5.79 2.6 32 50 1013.1 1 14.0 24.4 33.5 87.4 72.9 247.6
08/05 09:50 2.4 100 5.72 2.4 33 48 1013.1 0.6 13.9 24.4 33.3 86.9 72.1 244.8
08/05 09:40 2.4 100 5.72 2.4 39 56 1013.1 0.6 13.9 24.4 33.3 86.9 72.1 244.8
08/05 09:30 2.4 100 5.72 2.4 30 50 1013.1 0.4 13.9 24.4 33.3 86.9 72.1 244.8
08/05 09:20 2.3 100 5.68 2.3 28 33 1013.1 0.4 13.8 24.3 33.1 86.5 71.7 243.2
08/05 09:10 2.5 100 5.75 2.5 28 41 1013.1 0.2 13.9 24.4 33.3 87.1 72.4 246.0
08/05 09:00 2.5 100 5.75 2.5 33 59 1013.1 0 13.9 24.4 33.3 87.1 72.4 246.0
08/05 08:50 2.5 100 5.75 2.5 28 33 1013.1 36 13.9 24.4 33.3 87.1 72.4 246.0
08/05 08:40 2.6 100 5.79 2.6 32 41 1013.1 35.8 14.0 24.4 33.5 87.4 72.9 247.6
08/05 08:30 2.6 100 5.79 2.6 32 59 1013.1 35.4 14.0 24.4 33.5 87.4 72.9 247.6
08/05 08:20 2.7 100 5.83 2.7 33 44 1013.1 35.2 14.1 24.5 33.6 87.8 73.4 249.2
08/05 08:10 2.8 100 5.87 2.8 30 41 1013.1 34.6 14.2 24.5 33.7 88.1 73.8 250.8
08/05 08:00 2.8 100 5.87 2.8 35 59 1013.1 34.2 14.2 24.5 33.7 88.1 73.8 250.8
08/05 07:50 2.6 100 5.79 2.6 33 43 1013.1 33.6 14.0 24.4 33.5 87.4 72.9 247.6
08/05 07:40 2.7 100 5.83 2.7 43 61 1013.1 33.2 14.1 24.5 33.6 87.8 73.4 249.2
08/05 07:30 2.6 100 5.79 2.6 30 48 1013.1 32.8 14.0 24.4 33.5 87.4 72.9 247.6
08/05 07:20 2.6 100 5.79 2.6 28 39 1013.1 32.4 14.0 24.4 33.5 87.4 72.9 247.6
08/05 07:10 2.5 100 5.75 2.5 35 48 1013.1 32.2 13.9 24.4 33.3 87.1 72.4 246.0
08/05 07:00 2.6 100 5.79 2.6 37 61 1013.1 32 14.0 24.4 33.5 87.4 72.9 247.6
08/05 06:50 2.7 100 5.83 2.7 35 57 1013.1 32 14.1 24.5 33.6 87.8 73.4 249.2
08/05 06:40 2.6 100 5.79 2.6 37 48 1013.1 31.6 14.0 24.4 33.5 87.4 72.9 247.6
08/05 06:30 2.7 100 5.83 2.7 33 57 1013.1 31.2 14.1 24.5 33.6 87.8 73.4 249.2
08/05 06:20 3 100 5.95 3 41 57 1013.1 29.6 14.4 24.6 34.0 88.8 74.7 254.0
08/05 06:10 2.9 100 5.91 2.9 35 56 1013.1 28.6 14.3 24.5 33.8 88.4 74.3 252.4
08/05 06:00 3 100 5.95 3 35 57 1013.1 28.2 14.4 24.6 34.0 88.8 74.7 254.0
08/05 05:50 3 100 5.95 3 26 33 1013.1 27.6 14.4 24.6 34.0 88.8 74.7 254.0
08/05 05:40 2.8 100 5.87 2.8 39 50 1013.1 26.8 14.2 24.5 33.7 88.1 73.8 250.8
08/05 05:30 2.9 100 5.91 2.9 35 59 1013.1 26.4 14.3 24.5 33.8 88.4 74.3 252.4
08/05 05:20 2.8 100 5.87 2.8 30 48 1013.1 25.8 14.2 24.5 33.7 88.1 73.8 250.8
08/05 05:10 2.7 100 5.83 2.7 39 46 1013.1 25.4 14.1 24.5 33.6 87.8 73.4 249.2
08/05 05:00 2.7 100 5.83 2.7 35 57 1013.1 25.4 14.1 24.5 33.6 87.8 73.4 249.2
08/05 04:50 2.7 100 5.83 2.7 35 54 1013.1 25.4 14.1 24.5 33.6 87.8 73.4 249.2
08/05 04:40 2.6 100 5.79 2.6 33 44 1013.1 25 14.0 24.4 33.5 87.4 72.9 247.6
08/05 04:30 2.6 100 5.79 2.6 35 54 1013.1 24.8 14.0 24.4 33.5 87.4 72.9 247.6
08/05 04:20 2.5 100 5.75 2.5 37 46 1013.1 24.8 13.9 24.4 33.3 87.1 72.4 246.0
08/05 04:10 2.5 100 5.75 2.5 35 48 1013.1 24.6 13.9 24.4 33.3 87.1 72.4 246.0
08/05 04:00 2.5 100 5.75 2.5 32 52 1013.1 24.2 13.9 24.4 33.3 87.1 72.4 246.0
08/05 03:50 2.3 100 5.68 2.3 28 43 1013.1 23.8 13.8 24.3 33.1 86.5 71.7 243.2
08/05 03:40 2.3 100 5.68 2.3 33 43 1013.1 23.6 13.8 24.3 33.1 86.5 71.7 243.2
08/05 03:30 2.3 100 5.68 2.3 35 50 1013.1 23.6 13.8 24.3 33.1 86.5 71.7 243.2
08/05 03:20 2.3 100 5.68 2.3 35 44 1013.1 23.4 13.8 24.3 33.1 86.5 71.7 243.2
08/05 03:10 2.2 100 5.64 2.2 32 43 1013.1 23 13.7 24.3 33.0 86.2 71.2 241.6
08/05 03:00 2.3 100 5.68 2.3 33 50 1013.1 23 13.8 24.3 33.1 86.5 71.7 243.2
08/05 02:50 2.3 100 5.68 2.3 30 39 1013.1 22.8 13.8 24.3 33.1 86.5 71.7 243.2
08/05 02:40 2.4 100 5.72 2.4 37 61 1013.1 22.8 13.9 24.4 33.3 86.9 72.1 244.8
08/05 02:30 2.3 100 5.68 2.3 35 52 1013.1 22.6 13.8 24.3 33.1 86.5 71.7 243.2
08/05 02:20 2.2 100 5.64 2.2 37 46 1013.1 22.4 13.7 24.3 33.0 86.2 71.2 241.6
08/05 02:10 2.2 100 5.64 2.2 33 44 1013.1 22.2 13.7 24.3 33.0 86.2 71.2 241.6
08/05 02:00 2.2 100 5.64 2.2 33 56 1013.1 22 13.7 24.3 33.0 86.2 71.2 241.6
08/05 01:50 2.1 100 5.6 2.1 35 44 1013.1 22 13.6 24.2 32.9 85.9 70.7 240.0
08/05 01:40 2 100 5.56 2 28 35 1013.1 21.8 13.5 24.2 32.8 85.5 70.3 238.4
08/05 01:30 1.9 100 5.53 1.9 33 59 1013.1 21.6 13.5 24.2 32.7 85.3 70.0 237.2
08/05 01:20 2 100 5.56 2 32 41 1013.1 21.6 13.5 24.2 32.8 85.5 70.3 238.4
08/05 01:10 1.9 100 5.53 1.9 33 41 1013.1 21.6 13.5 24.2 32.7 85.3 70.0 237.2
08/05 01:00 1.7 100 5.45 1.7 33 52 1013.1 21.4 13.3 24.1 32.4 84.6 69.1 234.0
08/05 00:50 1.7 100 5.45 1.7 33 43 1013.1 21.2 13.3 24.1 32.4 84.6 69.1 234.0
08/05 00:40 1.6 100 5.41 1.6 32 44 1013.1 21 13.2 24.1 32.3 84.3 68.6 232.3
08/05 00:30 1.6 100 5.41 1.6 32 56 1013.1 21 13.2 24.1 32.3 84.3 68.6 232.3
08/05 00:20 1.4 100 5.34 1.4 32 43 1013.1 20.6 13.1 24.0 32.1 83.7 67.8 229.6
08/05 00:10 1.3 100 5.3 1.3 35 48 1013.1 20.4 13.0 24.0 32.0 83.4 67.3 227.9
08/05 00:00 1.1 100 5.23 1.1 32 52 1013.1 20.4 12.9 23.9 31.7 82.8 66.6 225.1
07/05 23:50 1 100 5.2 1 32 52 1013.1 20.4 12.8 23.9 31.7 82.6 66.2 224.0
07/05 23:40 0.8 100 5.13 0.8 33 44 1013.1 20.2 12.7 23.8 31.5 82.1 65.4 221.2
07/05 23:30 0.4 100 4.99 0.4 0 0 1013.1 20 12.4 23.7 31.0 80.9 63.9 215.6
07/05 23:20 0.3 100 4.95 0.3 0 0 1013.1 20 12.3 23.6 30.9 80.6 63.4 213.9
07/05 23:10 0.1 100 4.89 0.1 0 0 1013.1 20 12.2 23.6 30.7 80.1 62.7 211.6
07/05 23:00 0 100 4.85 0 0 0 1013.1 20 12.1 23.6 30.6 79.8 62.3 209.9
07/05 22:50 0 100 4.85 0 0 0 1013.1 19.8 12.1 23.6 30.6 79.8 62.3 209.9
07/05 22:40 0 100 4.85 0 0 0 1013.1 19.8 12.1 23.6 30.6 79.8 62.3 209.9
07/05 22:30 0 100 4.85 0 0 0 1013.1 19.6 12.1 23.6 30.6 79.8 62.3 209.9
07/05 22:20 0 100 4.85 0 0 0 1013.1 19.6 12.1 23.6 30.6 79.8 62.3 209.9
07/05 22:10 0 100 4.85 0 0 0 1013.1 19.6 12.1 23.6 30.6 79.8 62.3 209.9
07/05 22:00 0 100 4.85 0 0 0 1013.1 19.6 12.1 23.6 30.6 79.8 62.3 209.9
07/05 21:50 0 100 4.85 0 0 0 1013.1 19.6 12.1 23.6 30.6 79.8 62.3 209.9
07/05 21:40 0 100 4.85 0 0 0 1013.1 19.6 12.1 23.6 30.6 79.8 62.3 209.9
07/05 21:30 0 100 4.85 0 0 0 1013.1 19.6 12.1 23.6 30.6 79.8 62.3 209.9
07/05 21:20 0 100 4.85 0 0 0 1013.1 19.6 12.1 23.6 30.6 79.8 62.3 209.9
07/05 21:10 0 100 4.85 0 0 0 1013.1 19.6 12.1 23.6 30.6 79.8 62.3 209.9
07/05 21:00 -0.1 100 4.82 -0.1 0 0 1013.1 19.6 12.0 23.5 30.5 79.6 61.9 208.7
07/05 20:50 -0.2 100 4.79 -0.2 0 0 1013.1 19 12.0 23.5 30.4 79.3 61.6 207.6
07/05 20:40 -0.3 100 4.75 -0.3 0 0 1013.1 18.8 11.9 23.5 30.3 79.0 61.1 205.9
07/05 20:30 -0.4 100 4.72 -0.4 0 0 1013.1 18.6 11.8 23.4 30.2 78.7 60.8 204.7
07/05 20:20 -0.6 100 4.65 -0.6 0 0 1013.1 18.4 11.7 23.4 30.0 78.2 60.0 201.9
07/05 20:10 -0.9 100 4.56 -0.9 0 0 1013.1 18.4 11.5 23.3 29.7 77.5 59.0 198.3
07/05 20:00 -1.2 100 4.46 -1.2 0 0 1013.1 18.4 11.3 23.2 29.4 76.7 57.9 194.3

Last Refresh: 08-May-2026 12:08:02

Bureau of Meteorology